Time;durP1;ratioP1;P1;durP2;ratioP2;P2;SDS_P1;SDS_P2;PMS_P1;PMS_P2;Temp;Humidity;BMP_temperature;BMP_pressure;BME280_temperature;BME280_humidity;BME280_pressure;Samples;Min_cycle;Max_cycle;Signal;HPM_P1;HPM_P2
2023/06/08 00:01:11;;;;;;;2.53;2.20;;;;;;;17.15;82.21;97886.66;5053009;28;20685;-78
2023/06/08 00:03:39;;;;;;;2.50;2.30;;;;;;;17.13;82.07;97894.19;5053891;28;20208;-78
2023/06/08 00:06:06;;;;;;;2.47;2.23;;;;;;;17.15;82.29;97892.03;5053830;28;20255;-78
2023/06/08 00:08:33;;;;;;;3.13;2.10;;;;;;;17.05;82.80;97897.38;5053727;28;20220;-78
2023/06/08 00:11:00;;;;;;;2.27;2.07;;;;;;;17.00;85.11;97894.66;5054314;28;20304;-78
2023/06/08 00:13:26;;;;;;;4.10;2.53;;;;;;;16.97;85.76;97897.09;5053804;28;20209;-78
2023/06/08 00:15:53;;;;;;;2.63;2.13;;;;;;;16.98;83.26;97902.19;5053640;28;20225;-78
2023/06/08 00:18:19;;;;;;;2.30;2.10;;;;;;;16.99;82.96;97901.13;5053860;28;20211;-78
2023/06/08 00:20:46;;;;;;;2.50;2.30;;;;;;;16.91;83.40;97896.25;5054154;28;20205;-78
2023/06/08 00:23:12;;;;;;;2.50;1.97;;;;;;;16.87;83.63;97895.16;5053878;28;20209;-78
2023/06/08 00:25:39;;;;;;;3.13;2.40;;;;;;;16.85;84.69;97897.31;5053937;28;20227;-78
2023/06/08 00:28:05;;;;;;;2.53;2.33;;;;;;;16.93;84.02;97896.00;5053583;28;20209;-78
2023/06/08 00:30:32;;;;;;;2.20;2.10;;;;;;;16.79;84.55;97894.88;5053870;28;20225;-78
2023/06/08 00:32:58;;;;;;;2.40;2.20;;;;;;;16.80;84.61;97899.97;5053867;28;20210;-78
2023/06/08 00:35:24;;;;;;;2.03;1.80;;;;;;;16.81;84.85;97898.09;5053506;28;20209;-78
2023/06/08 00:37:51;;;;;;;3.03;2.33;;;;;;;16.79;85.97;97897.56;5053859;28;20224;-78
2023/06/08 00:40:17;;;;;;;2.50;2.30;;;;;;;16.79;85.32;97905.59;5053882;28;20205;-78
2023/06/08 00:42:43;;;;;;;2.37;2.10;;;;;;;16.78;86.42;97901.31;5053916;28;20205;-78
2023/06/08 00:45:10;;;;;;;3.47;2.30;;;;;;;16.79;84.80;97894.88;5053851;28;20212;-78
2023/06/08 00:47:37;;;;;;;3.47;2.40;;;;;;;16.73;85.17;97894.03;5053316;28;20564;-78
2023/06/08 00:50:04;;;;;;;3.10;2.50;;;;;;;16.71;85.11;97888.13;5053342;28;20229;-78
2023/06/08 00:52:31;;;;;;;2.53;2.33;;;;;;;16.75;85.39;97897.28;5053536;28;20213;-78
2023/06/08 00:55:00;;;;;;;3.07;2.57;;;;;;;16.74;85.38;97889.47;5053414;28;20205;-78
2023/06/08 00:57:28;;;;;;;2.80;2.53;;;;;;;16.69;86.25;97890.25;5053406;28;20288;-78
2023/06/08 00:59:57;;;;;;;3.43;2.70;;;;;;;16.72;86.86;97891.59;5053491;28;20239;-78
2023/06/08 01:02:24;;;;;;;3.67;3.30;;;;;;;16.68;86.58;97883.25;5053400;28;20215;-77
2023/06/08 01:04:53;;;;;;;2.87;2.63;;;;;;;16.65;88.30;97888.34;5053403;28;20209;-78
2023/06/08 01:07:29;;;;;;;4.47;3.10;;;;;;;16.58;88.46;97885.09;5053064;28;20634;-78
2023/06/08 01:10:35;;;;;;;4.20;3.30;;;;;;;16.46;88.99;97887.97;5053409;28;20231;-78
2023/06/08 01:13:22;;;;;;;4.57;3.10;;;;;;;16.41;88.33;97887.13;5053620;28;20317;-78
2023/06/08 01:15:52;;;;;;;3.60;2.93;;;;;;;16.30;90.08;97888.13;5056907;28;20225;-78
2023/06/08 01:18:22;;;;;;;4.73;3.10;;;;;;;16.29;90.19;97884.63;5057284;28;20194;-78
2023/06/08 01:21:30;;;;;;;4.47;3.70;;;;;;;16.39;88.81;97875.84;5056746;28;20664;-78
2023/06/08 01:24:13;;;;;;;4.23;3.77;;;;;;;16.47;87.68;97884.22;5055618;28;20217;-78
2023/06/08 01:26:45;;;;;;;3.97;3.53;;;;;;;16.52;86.52;97875.41;5056602;28;20229;-78
2023/06/08 01:29:13;;;;;;;4.83;4.27;;;;;;;16.50;86.06;97889.09;5056892;28;20300;-78
2023/06/08 01:31:40;;;;;;;4.07;3.67;;;;;;;16.52;85.84;97870.81;5056546;28;20665;-78
2023/06/08 01:34:07;;;;;;;4.13;3.73;;;;;;;16.45;87.27;97870.28;5056833;28;20672;-78
2023/06/08 01:36:44;;;;;;;4.00;3.60;;;;;;;16.37;88.07;97875.31;5056320;28;20224;-78
2023/06/08 01:39:29;;;;;;;4.57;4.13;;;;;;;16.32;88.79;97878.75;5056512;28;20628;-78
2023/06/08 01:42:01;;;;;;;4.87;3.50;;;;;;;16.23;89.57;97876.81;5056893;28;20266;-78
2023/06/08 01:44:30;;;;;;;4.30;3.40;;;;;;;16.17;89.28;97878.66;5056844;28;20189;-78
2023/06/08 01:46:59;;;;;;;3.93;3.53;;;;;;;16.21;88.50;97874.41;5056563;28;20319;-78
2023/06/08 01:49:28;;;;;;;5.83;3.60;;;;;;;16.21;88.90;97871.72;5056538;28;20221;-78
2023/06/08 01:51:55;;;;;;;5.23;3.27;;;;;;;16.09;90.40;97868.41;5056345;28;20232;-78
2023/06/08 01:54:22;;;;;;;4.10;3.00;;;;;;;16.06;90.51;97866.22;5056318;28;20213;-78
2023/06/08 01:56:49;;;;;;;3.03;2.73;;;;;;;16.11;90.44;97868.16;5056345;28;20228;-78
2023/06/08 01:59:15;;;;;;;3.90;3.00;;;;;;;16.15;90.14;97870.06;5056473;28;20208;-78
2023/06/08 02:01:42;;;;;;;2.80;2.60;;;;;;;16.17;90.42;97869.78;5056143;28;20216;-78
2023/06/08 02:04:08;;;;;;;2.77;2.40;;;;;;;16.01;91.46;97863.53;5056508;28;20201;-78
2023/06/08 02:06:35;;;;;;;2.70;2.50;;;;;;;15.88;92.98;97861.28;5056177;28;20226;-78
2023/06/08 02:09:01;;;;;;;2.67;2.47;;;;;;;15.96;92.17;97862.69;5056019;28;20229;-78
2023/06/08 02:11:27;;;;;;;2.90;2.70;;;;;;;15.85;93.01;97861.81;5056103;28;20212;-78
2023/06/08 02:13:54;;;;;;;5.60;2.90;;;;;;;15.61;95.50;97868.56;5056250;28;20202;-78
2023/06/08 02:16:20;;;;;;;2.70;2.50;;;;;;;15.62;95.48;97862.16;5055876;28;20236;-78
2023/06/08 02:18:49;;;;;;;2.70;2.50;;;;;;;15.42;97.59;97851.25;5056035;28;20684;-78
2023/06/08 02:21:16;;;;;;;5.67;2.87;;;;;;;15.31;98.56;97856.75;5056385;28;20292;-78
2023/06/08 02:23:42;;;;;;;2.90;2.70;;;;;;;15.35;98.03;97861.38;5055285;28;20213;-78
2023/06/08 02:26:09;;;;;;;3.27;2.97;;;;;;;15.29;98.92;97858.88;5056158;28;20236;-78
2023/06/08 02:28:36;;;;;;;3.23;2.83;;;;;;;15.28;99.17;97862.63;5055918;28;20205;-78
2023/06/08 02:31:03;;;;;;;3.17;2.60;;;;;;;15.31;98.05;97868.28;5055799;28;20221;-78
2023/06/08 02:33:29;;;;;;;2.90;2.60;;;;;;;15.29;98.98;97870.38;5056032;28;20201;-78
2023/06/08 02:35:56;;;;;;;3.10;2.73;;;;;;;15.28;100.00;97866.09;5055627;28;20221;-78
2023/06/08 02:38:22;;;;;;;4.60;2.90;;;;;;;15.28;100.00;97866.09;5055425;28;20212;-78
2023/06/08 02:40:48;;;;;;;3.00;2.80;;;;;;;15.21;99.82;97862.81;5055243;28;20201;-78
2023/06/08 02:43:15;;;;;;;2.77;2.50;;;;;;;15.21;100.00;97864.69;5055374;28;20690;-78
2023/06/08 02:45:42;;;;;;;2.80;2.60;;;;;;;15.22;100.00;97858.25;5055084;28;20591;-78
2023/06/08 02:48:08;;;;;;;2.90;2.60;;;;;;;15.23;100.00;97863.38;5055221;28;20660;-78
2023/06/08 02:50:35;;;;;;;2.97;2.70;;;;;;;15.26;100.00;97860.19;5055173;28;20688;-78
2023/06/08 02:53:02;;;;;;;3.87;2.80;;;;;;;15.29;100.00;97865.03;5055413;28;20254;-78
2023/06/08 02:55:34;;;;;;;3.23;2.73;;;;;;;15.28;100.00;97862.63;5054965;28;20304;-78
2023/06/08 02:58:03;;;;;;;3.60;3.30;;;;;;;15.28;100.00;97862.63;5055240;28;20236;-78
2023/06/08 03:00:31;;;;;;;3.40;3.00;;;;;;;15.31;100.00;97865.59;5055365;28;20204;-78
2023/06/08 03:03:00;;;;;;;3.90;3.03;;;;;;;15.23;100.00;97876.75;5055357;28;20235;-78
2023/06/08 03:05:26;;;;;;;5.30;3.30;;;;;;;15.18;100.00;97871.34;5054823;28;20284;-78
2023/06/08 03:07:53;;;;;;;3.83;3.00;;;;;;;15.12;100.00;97874.22;5055234;28;20300;-78
2023/06/08 03:10:20;;;;;;;3.57;3.27;;;;;;;15.10;100.00;97877.16;5054721;28;20572;-78
2023/06/08 03:12:46;;;;;;;3.83;3.10;;;;;;;14.99;100.00;97877.28;5054832;28;20208;-78
2023/06/08 03:15:22;;;;;;;4.27;3.20;;;;;;;14.95;100.00;97876.19;5054627;28;20212;-78
2023/06/08 03:17:48;;;;;;;3.30;3.10;;;;;;;14.97;100.00;97884.78;5054601;28;20185;-78
2023/06/08 03:20:17;;;;;;;3.47;3.17;;;;;;;14.99;100.00;97879.97;5054941;28;20208;-78
2023/06/08 03:22:45;;;;;;;4.37;3.40;;;;;;;14.87;100.00;97880.09;5054162;28;20209;-78
2023/06/08 03:25:15;;;;;;;3.60;3.30;;;;;;;14.91;100.00;97877.72;5054414;28;20193;-78
2023/06/08 03:27:41;;;;;;;3.57;3.23;;;;;;;14.98;100.00;97876.50;5054713;28;20258;-78
2023/06/08 03:30:09;;;;;;;4.00;3.57;;;;;;;14.95;100.00;97874.31;5054482;28;20229;-78
2023/06/08 03:32:36;;;;;;;3.83;3.53;;;;;;;15.00;100.00;97869.00;5054170;28;20212;-78
2023/06/08 03:35:03;;;;;;;4.20;3.80;;;;;;;14.95;100.00;97862.78;5054350;28;20255;-78
2023/06/08 03:37:30;;;;;;;4.37;3.50;;;;;;;14.90;100.00;97860.88;5054417;28;20251;-78
2023/06/08 03:39:56;;;;;;;4.10;3.80;;;;;;;15.00;100.00;97874.38;5054263;28;20201;-78
2023/06/08 03:42:22;;;;;;;4.10;3.40;;;;;;;14.96;100.00;97867.06;5053885;28;20205;-78
2023/06/08 03:44:49;;;;;;;3.83;3.50;;;;;;;14.91;100.00;97864.34;5054142;28;20216;-78
2023/06/08 03:47:15;;;;;;;4.07;3.77;;;;;;;14.88;100.00;97868.34;5054177;28;20221;-78
2023/06/08 03:49:41;;;;;;;5.07;3.67;;;;;;;14.97;100.00;97866.84;5053956;28;20225;-78
2023/06/08 03:52:08;;;;;;;4.10;3.63;;;;;;;15.01;100.00;97869.84;5054069;28;20215;-78
2023/06/08 03:54:34;;;;;;;4.37;3.53;;;;;;;15.08;100.00;97865.06;5054257;28;20216;-78
2023/06/08 03:57:00;;;;;;;4.23;3.83;;;;;;;14.96;100.00;97870.56;5054072;28;20312;-78
2023/06/08 03:59:27;;;;;;;3.93;3.63;;;;;;;15.11;100.00;97868.06;5053976;28;20208;-78
2023/06/08 04:01:53;;;;;;;5.73;3.97;;;;;;;15.05;100.00;97874.41;5054093;28;20672;-78
2023/06/08 04:04:20;;;;;;;4.20;3.90;;;;;;;15.08;100.00;97881.97;5053963;28;20649;-78
2023/06/08 04:06:46;;;;;;;4.57;3.93;;;;;;;15.18;100.00;97884.75;5053947;28;20271;-78
2023/06/08 04:09:13;;;;;;;4.27;3.87;;;;;;;15.10;100.00;97877.16;5053808;28;20657;-78
2023/06/08 04:11:39;;;;;;;4.33;3.90;;;;;;;15.24;100.00;97870.34;5053761;28;20571;-78
2023/06/08 04:14:05;;;;;;;4.40;4.00;;;;;;;15.12;100.00;97872.38;5053970;28;20212;-78
2023/06/08 04:16:32;;;;;;;6.20;4.23;;;;;;;15.18;100.00;97876.72;5053993;28;20220;-78
2023/06/08 04:18:58;;;;;;;5.83;4.37;;;;;;;15.20;100.00;97877.25;5054006;28;20216;-78
2023/06/08 04:21:25;;;;;;;6.23;3.90;;;;;;;15.29;100.00;97874.94;5054133;28;20219;-78
2023/06/08 04:23:51;;;;;;;7.00;3.90;;;;;;;15.36;100.00;97878.25;5053596;28;20245;-78
2023/06/08 04:26:18;;;;;;;5.10;4.10;;;;;;;15.29;100.00;97874.94;5054064;28;20244;-78
2023/06/08 04:28:48;;;;;;;4.63;4.23;;;;;;;15.32;100.00;97864.53;5053915;28;20270;-78
2023/06/08 04:31:14;;;;;;;4.97;4.43;;;;;;;15.36;100.00;97871.03;5054047;28;20229;-78
2023/06/08 04:33:40;;;;;;;4.20;3.80;;;;;;;15.36;100.00;97875.56;5054068;28;20205;-78
2023/06/08 04:36:07;;;;;;;4.40;4.00;;;;;;;15.50;100.00;97884.81;5053904;28;20225;-78
2023/06/08 04:38:33;;;;;;;5.57;4.37;;;;;;;15.57;100.00;97886.25;5053836;28;20231;-78
2023/06/08 04:41:01;;;;;;;4.90;4.50;;;;;;;15.66;100.00;97894.63;5053830;28;20205;-78
2023/06/08 04:43:31;;;;;;;5.53;4.63;;;;;;;15.75;98.28;97888.50;5053786;28;20656;-78
2023/06/08 04:45:59;;;;;;;4.87;4.30;;;;;;;15.82;100.00;97899.03;5053767;28;20236;-78
2023/06/08 04:48:27;;;;;;;6.03;4.33;;;;;;;15.84;100.00;97896.91;5057042;28;20243;-78
2023/06/08 04:50:59;;;;;;;4.73;4.30;;;;;;;15.82;98.72;97905.22;5057320;28;20221;-78
2023/06/08 04:53:26;;;;;;;4.73;4.23;;;;;;;15.92;97.96;97905.28;5057459;28;20192;-78
2023/06/08 04:55:57;;;;;;;6.90;4.57;;;;;;;15.99;97.30;97903.22;5057582;28;20231;-78
2023/06/08 04:58:26;;;;;;;4.77;4.10;;;;;;;16.15;96.05;97907.59;5057079;28;20660;-78
2023/06/08 05:00:53;;;;;;;4.97;4.27;;;;;;;16.24;95.08;97905.25;5057126;28;20572;-78
2023/06/08 05:03:20;;;;;;;6.37;4.63;;;;;;;16.22;93.80;97916.25;5057436;28;20205;-78
2023/06/08 05:05:47;;;;;;;5.17;4.67;;;;;;;16.32;94.25;97919.00;5056807;28;20670;-78
2023/06/08 05:08:14;;;;;;;5.10;4.60;;;;;;;16.49;93.43;97918.84;5057333;28;20213;-78
2023/06/08 05:10:40;;;;;;;7.93;4.87;;;;;;;16.80;90.62;97915.25;5057092;28;20229;-78
2023/06/08 05:13:07;;;;;;;6.00;4.40;;;;;;;17.16;88.05;97915.16;5057209;28;20664;-78
2023/06/08 05:15:33;;;;;;;7.17;4.70;;;;;;;17.47;86.92;97924.13;5057741;28;20247;-78
2023/06/08 05:18:00;;;;;;;6.43;4.60;;;;;;;18.01;84.02;97909.91;5057523;28;20211;-78
2023/06/08 05:20:29;;;;;;;4.83;4.13;;;;;;;19.28;75.90;97903.97;5057571;28;20207;-78
2023/06/08 05:22:56;;;;;;;7.50;4.17;;;;;;;18.42;79.04;97908.03;5056741;28;20240;-78
2023/06/08 05:25:22;;;;;;;4.07;3.57;;;;;;;18.61;78.50;97907.19;5057386;28;20209;-78
2023/06/08 05:27:48;;;;;;;4.53;3.50;;;;;;;18.81;77.22;97906.31;5057622;28;20209;-78
2023/06/08 05:30:15;;;;;;;3.60;3.30;;;;;;;18.95;77.34;97899.28;5057428;28;20236;-78
2023/06/08 05:32:41;;;;;;;6.53;4.70;;;;;;;19.05;78.24;97896.53;5057343;28;20209;-78
2023/06/08 05:35:08;;;;;;;5.40;3.90;;;;;;;19.15;76.89;97886.50;5057171;28;20212;-78
2023/06/08 05:37:34;;;;;;;5.13;4.33;;;;;;;18.70;78.20;97886.69;5056703;28;20232;-78
2023/06/08 05:40:01;;;;;;;4.20;3.80;;;;;;;18.81;78.17;97885.56;5057232;28;20290;-78
2023/06/08 05:42:27;;;;;;;6.00;4.20;;;;;;;18.73;79.62;97886.13;5057212;28;20293;-78
2023/06/08 05:44:54;;;;;;;6.10;4.37;;;;;;;18.34;79.68;97889.75;5057026;28;20201;-78
2023/06/08 05:47:20;;;;;;;5.37;4.40;;;;;;;18.39;81.11;97881.66;5056847;28;20228;-78
2023/06/08 05:49:47;;;;;;;4.93;4.20;;;;;;;18.53;79.74;97888.06;5056028;28;20572;-78
2023/06/08 05:52:13;;;;;;;5.07;4.10;;;;;;;18.36;80.80;97883.00;5056825;28;20205;-78
2023/06/08 05:54:40;;;;;;;4.50;4.10;;;;;;;18.22;81.73;97887.31;5056765;28;20206;-78
2023/06/08 05:57:06;;;;;;;4.57;4.17;;;;;;;18.31;81.83;97887.56;5056996;28;20252;-78
2023/06/08 05:59:32;;;;;;;4.73;4.00;;;;;;;18.37;80.63;97890.00;5055224;28;20209;-78
2023/06/08 06:01:59;;;;;;;5.27;4.37;;;;;;;18.55;79.69;97883.25;5056490;28;20228;-78
2023/06/08 06:04:25;;;;;;;4.10;3.80;;;;;;;18.87;78.21;97879.06;5057077;28;20211;-78
2023/06/08 06:06:52;;;;;;;4.53;4.13;;;;;;;18.92;77.23;97879.03;5056532;28;20566;-78
2023/06/08 06:09:18;;;;;;;4.13;3.60;;;;;;;18.92;76.56;97886.34;5056289;28;20205;-78
2023/06/08 06:11:47;;;;;;;5.30;4.03;;;;;;;19.00;76.85;97877.69;5056272;28;20224;-78
2023/06/08 06:14:13;;;;;;;4.33;4.03;;;;;;;19.16;75.61;97869.25;5056649;28;20229;-78
2023/06/08 06:16:41;;;;;;;4.50;4.10;;;;;;;19.20;75.00;97872.19;5056082;28;20229;-78
2023/06/08 06:19:07;;;;;;;4.43;3.63;;;;;;;19.33;74.82;97871.59;5056520;28;20232;-78
2023/06/08 06:21:34;;;;;;;4.57;4.00;;;;;;;19.41;73.80;97871.03;5056570;28;20227;-78
2023/06/08 06:24:00;;;;;;;5.00;4.30;;;;;;;19.42;73.41;97865.31;5055525;28;20217;-78
2023/06/08 06:26:26;;;;;;;5.03;4.03;;;;;;;19.86;72.72;97872.56;5055797;28;20235;-78
2023/06/08 06:28:53;;;;;;;4.30;3.90;;;;;;;19.81;71.58;97870.69;5056027;28;20205;-78
2023/06/08 06:31:19;;;;;;;5.33;3.70;;;;;;;19.83;72.44;97867.72;5056311;28;20255;-78
2023/06/08 06:33:45;;;;;;;4.40;4.00;;;;;;;19.35;72.50;97870.25;5056313;28;20212;-78
2023/06/08 06:36:12;;;;;;;4.60;4.17;;;;;;;19.27;73.62;97878.13;5055999;28;20221;-78
2023/06/08 06:38:38;;;;;;;4.87;3.80;;;;;;;19.31;73.88;97876.44;5055251;28;20688;-78
2023/06/08 06:41:04;;;;;;;4.57;3.80;;;;;;;19.33;74.24;97871.59;5055892;28;20227;-78
2023/06/08 06:43:31;;;;;;;4.57;4.17;;;;;;;19.42;72.58;97878.03;5055474;28;20212;-78
2023/06/08 06:45:57;;;;;;;5.27;3.57;;;;;;;19.68;73.25;97880.25;5055670;28;20232;-78
2023/06/08 06:48:24;;;;;;;4.77;4.00;;;;;;;19.67;73.43;97873.25;5055816;28;20209;-78
2023/06/08 06:50:50;;;;;;;4.30;3.90;;;;;;;19.62;72.89;97879.78;5055722;28;20622;-78
2023/06/08 06:53:17;;;;;;;4.10;3.67;;;;;;;19.49;73.86;97876.63;5055895;28;20201;-78
2023/06/08 06:55:43;;;;;;;4.43;4.03;;;;;;;19.58;72.57;97874.13;5055508;28;20283;-78
2023/06/08 06:58:10;;;;;;;4.50;3.70;;;;;;;19.63;72.15;97874.13;5055589;28;20205;-78
2023/06/08 07:00:38;;;;;;;3.97;3.67;;;;;;;19.82;70.79;97869.66;5055510;28;20201;-78
2023/06/08 07:03:06;;;;;;;3.60;3.30;;;;;;;19.83;70.82;97879.34;5055236;28;20282;-78
2023/06/08 07:05:33;;;;;;;5.83;3.50;;;;;;;20.12;70.13;97877.50;5055465;28;20229;-78
2023/06/08 07:07:59;;;;;;;4.37;3.67;;;;;;;20.39;69.94;97883.16;5054807;28;20564;-78
2023/06/08 07:10:26;;;;;;;3.63;3.33;;;;;;;20.42;68.51;97881.78;5054828;28;20222;-78
2023/06/08 07:12:52;;;;;;;3.80;3.50;;;;;;;20.51;67.71;97880.06;5055245;28;20205;-78
2023/06/08 07:15:19;;;;;;;5.43;4.93;;;;;;;20.63;66.35;97888.59;5055142;28;20205;-78
2023/06/08 07:17:46;;;;;;;4.20;3.63;;;;;;;20.81;65.35;97877.03;5055806;28;20209;-78
2023/06/08 07:20:13;;;;;;;4.63;3.87;;;;;;;21.00;65.38;97881.44;5055785;28;20213;-78
2023/06/08 07:22:40;;;;;;;5.50;4.47;;;;;;;20.81;64.48;97885.16;5054791;28;20254;-78
2023/06/08 07:25:07;;;;;;;5.13;3.83;;;;;;;21.09;64.96;97887.81;5055116;28;20194;-78
2023/06/08 07:27:33;;;;;;;4.77;4.27;;;;;;;21.13;65.00;97882.63;5055295;28;20244;-78
2023/06/08 07:30:00;;;;;;;3.90;3.60;;;;;;;21.19;65.12;97890.38;5055183;28;20216;-78
2023/06/08 07:32:28;;;;;;;3.90;3.60;;;;;;;21.10;65.72;97888.59;5055092;28;20225;-78
2023/06/08 07:34:55;;;;;;;3.80;3.50;;;;;;;21.30;64.28;97883.72;5055179;28;20208;-78
2023/06/08 07:37:21;;;;;;;4.87;4.40;;;;;;;21.35;64.73;97882.88;5054753;28;20229;-78
2023/06/08 07:39:47;;;;;;;3.43;3.23;;;;;;;21.27;65.37;97887.03;5054539;28;20212;-78
2023/06/08 07:42:14;;;;;;;3.17;2.93;;;;;;;21.44;66.23;97886.53;5054708;28;20197;-78
2023/06/08 07:44:40;;;;;;;3.58;3.28;;;;;;;21.71;61.31;97897.50;5054427;28;20213;-78
2023/06/08 07:47:06;;;;;;;4.43;3.67;;;;;;;21.22;62.33;97902.50;5054185;28;20229;-78
2023/06/08 07:49:33;;;;;;;3.97;2.90;;;;;;;21.42;64.28;97896.81;5054811;28;20205;-78
2023/06/08 07:51:59;;;;;;;3.57;3.07;;;;;;;21.53;64.22;97896.38;5054238;28;20225;-78
2023/06/08 07:54:25;;;;;;;4.88;3.38;;;;;;;21.75;63.89;97903.94;5054800;28;20209;-78
2023/06/08 07:56:52;;;;;;;3.70;3.30;;;;;;;21.30;63.16;97901.88;5053964;28;20229;-77
2023/06/08 07:59:18;;;;;;;4.00;3.70;;;;;;;21.10;64.55;97896.69;5054017;28;20201;-78
2023/06/08 08:01:45;;;;;;;5.00;3.80;;;;;;;21.64;64.70;97897.03;5054216;28;20208;-78
2023/06/08 08:04:11;;;;;;;4.40;4.00;;;;;;;21.64;63.61;97902.44;5053730;28;20212;-77
2023/06/08 08:06:38;;;;;;;4.23;3.83;;;;;;;20.93;65.46;97891.00;5053131;28;20235;-77
2023/06/08 08:09:04;;;;;;;4.00;3.60;;;;;;;21.70;65.29;97901.31;5053420;28;20209;-78
2023/06/08 08:11:31;;;;;;;4.17;3.70;;;;;;;21.84;62.17;97899.47;5053038;28;20692;-76
2023/06/08 08:13:57;;;;;;;4.05;3.75;;;;;;;22.24;60.54;97896.91;5053144;28;20205;-77
2023/06/08 08:16:23;;;;;;;3.75;3.45;;;;;;;22.14;60.43;97912.50;5053178;28;20229;-76
2023/06/08 08:18:50;;;;;;;3.53;3.22;;;;;;;22.08;61.52;97903.69;5053483;28;20209;-77
2023/06/08 08:21:16;;;;;;;5.93;4.50;;;;;;;21.81;62.65;97905.47;5053149;28;20201;-77
2023/06/08 08:23:42;;;;;;;4.10;3.70;;;;;;;22.28;64.55;97905.22;5054950;28;20659;-77
2023/06/08 08:26:09;;;;;;;5.40;4.90;;;;;;;21.69;65.82;97897.81;5056774;28;20726;-77
2023/06/08 08:28:41;;;;;;;6.15;4.80;;;;;;;21.25;67.23;97900.03;5056943;28;20553;-77
2023/06/08 08:31:07;;;;;;;5.23;4.80;;;;;;;21.50;67.23;97898.88;5056974;28;20263;-76
2023/06/08 08:33:33;;;;;;;5.77;5.13;;;;;;;21.89;65.77;97894.00;5057129;28;20205;-76
2023/06/08 08:36:00;;;;;;;5.03;4.63;;;;;;;21.93;65.88;97897.72;5057085;28;20235;-76
2023/06/08 08:38:26;;;;;;;5.30;4.80;;;;;;;21.58;66.15;97895.50;5056837;28;20672;-76
2023/06/08 08:40:53;;;;;;;5.67;4.50;;;;;;;21.90;64.71;97893.69;5057129;28;20546;-76
2023/06/08 08:43:27;;;;;;;4.70;4.30;;;;;;;22.33;62.79;97905.13;5056917;28;20204;-77
2023/06/08 08:45:56;;;;;;;4.23;3.83;;;;;;;22.74;62.38;97900.63;5056873;28;20224;-77
2023/06/08 08:48:25;;;;;;;4.53;4.13;;;;;;;22.12;62.94;97896.56;5055505;28;20209;-76
2023/06/08 08:50:57;;;;;;;4.40;4.00;;;;;;;22.34;64.56;97904.06;5056378;28;20328;-77
2023/06/08 08:53:27;;;;;;;5.00;4.60;;;;;;;22.77;61.52;97908.97;5056728;28;20275;-76
2023/06/08 08:55:57;;;;;;;6.05;5.20;;;;;;;22.32;62.31;97908.94;5056276;28;20634;-76
2023/06/08 08:58:24;;;;;;;7.82;5.55;;;;;;;22.35;61.84;97902.94;5056216;28;20545;-77
2023/06/08 09:00:51;;;;;;;4.50;4.20;;;;;;;22.53;61.40;97910.25;5056121;28;20683;-77
2023/06/08 09:03:18;;;;;;;5.57;3.97;;;;;;;22.76;61.88;97903.84;5056335;28;20205;-77
2023/06/08 09:05:52;;;;;;;4.90;4.50;;;;;;;22.66;57.86;97904.03;5056505;28;20750;-78
2023/06/08 09:08:18;;;;;;;4.47;3.70;;;;;;;22.49;58.64;97901.09;5056548;28;20190;-77
2023/06/08 09:11:03;;;;;;;4.30;3.97;;;;;;;22.99;57.07;97898.22;5056803;28;20669;-77
2023/06/08 09:13:30;;;;;;;6.63;6.13;;;;;;;22.93;56.62;97891.28;5057236;28;20212;-78
2023/06/08 09:15:57;;;;;;;4.90;3.63;;;;;;;23.13;56.26;97893.59;5057259;28;20229;-78
2023/06/08 09:18:23;;;;;;;3.85;3.55;;;;;;;23.25;55.66;97893.91;5057462;28;20205;-78
2023/06/08 09:20:51;;;;;;;4.40;4.00;;;;;;;23.15;55.06;97893.28;5056998;28;20232;-78
2023/06/08 09:23:24;;;;;;;5.45;4.72;;;;;;;23.10;53.25;97887.94;5056418;28;20270;-77
2023/06/08 09:25:51;;;;;;;3.00;2.80;;;;;;;23.37;52.24;97887.94;5056364;28;20265;-77
2023/06/08 09:28:26;;;;;;;3.55;3.00;;;;;;;23.66;50.49;97883.75;5056403;28;20205;-77
2023/06/08 09:30:55;;;;;;;3.78;2.85;;;;;;;23.80;51.84;97886.41;5056266;28;20216;-78
2023/06/08 09:33:26;;;;;;;4.07;3.72;;;;;;;23.99;50.46;97884.34;5056099;28;20763;-77
2023/06/08 09:35:59;;;;;;;3.42;3.13;;;;;;;24.21;49.85;97881.63;5056059;28;20260;-78
2023/06/08 09:38:26;;;;;;;5.03;4.43;;;;;;;24.34;49.75;97875.31;5056411;28;20209;-78
2023/06/08 09:41:13;;;;;;;4.22;3.85;;;;;;;24.34;50.09;97872.59;5056397;28;20232;-78
2023/06/08 09:43:42;;;;;;;6.43;3.80;;;;;;;24.36;51.28;97875.78;5056397;28;20201;-78
2023/06/08 09:46:11;;;;;;;4.40;3.70;;;;;;;24.50;51.37;97880.03;5056962;28;20225;-78
2023/06/08 09:48:39;;;;;;;3.67;3.45;;;;;;;23.84;51.75;97873.84;5056239;28;20228;-78
2023/06/08 09:51:08;;;;;;;3.35;3.15;;;;;;;24.44;50.05;97869.63;5056046;28;20700;-77
2023/06/08 09:53:37;;;;;;;4.20;3.33;;;;;;;24.75;47.95;97862.28;5055904;28;20220;-77
2023/06/08 09:56:05;;;;;;;3.30;3.10;;;;;;;24.88;48.32;97850.47;5054539;28;20299;-78
2023/06/08 09:58:35;;;;;;;4.30;3.97;;;;;;;24.74;46.60;97863.38;5054586;28;20296;-77
2023/06/08 10:01:04;;;;;;;3.92;3.63;;;;;;;24.50;47.76;97861.00;5055546;28;20205;-77
2023/06/08 10:03:38;;;;;;;4.22;3.70;;;;;;;23.78;49.04;97865.00;5055299;28;20301;-77
2023/06/08 10:06:06;;;;;;;3.83;3.53;;;;;;;24.52;47.65;97849.84;5053703;28;20719;-77
2023/06/08 10:08:38;;;;;;;4.70;3.60;;;;;;;24.50;49.96;97846.59;5055971;28;20296;-78
2023/06/08 10:11:07;;;;;;;4.18;3.70;;;;;;;24.35;47.84;97842.41;5055581;28;20285;-77
2023/06/08 10:13:34;;;;;;;3.83;3.45;;;;;;;24.80;46.90;97845.81;5055289;28;20240;-77
2023/06/08 10:16:01;;;;;;;6.35;3.80;;;;;;;25.24;46.82;97843.66;5055620;28;20328;-77
2023/06/08 10:18:28;;;;;;;3.40;3.20;;;;;;;25.44;46.89;97837.66;5055566;28;20292;-78
2023/06/08 10:20:54;;;;;;;5.85;4.05;;;;;;;25.25;45.25;97841.75;5055650;28;20205;-77
2023/06/08 10:23:21;;;;;;;4.97;3.67;;;;;;;24.70;47.82;97836.00;5054864;28;20311;-78
2023/06/08 10:25:50;;;;;;;5.07;3.80;;;;;;;24.94;47.74;97830.97;5054766;28;20316;-77
2023/06/08 10:28:20;;;;;;;5.35;3.90;;;;;;;25.20;47.14;97834.53;5055391;28;20259;-78
2023/06/08 10:30:46;;;;;;;4.28;3.88;;;;;;;25.38;45.33;97829.97;5055096;28;20208;-77
2023/06/08 10:33:24;;;;;;;4.82;4.00;;;;;;;25.44;45.46;97831.41;5055089;28;20225;-77
2023/06/08 10:36:11;;;;;;;4.15;3.78;;;;;;;25.61;47.59;97820.50;5054672;28;20641;-78
2023/06/08 10:38:59;;;;;;;4.95;4.35;;;;;;;25.22;45.53;97815.16;5055132;28;20209;-77
2023/06/08 10:41:46;;;;;;;4.90;4.30;;;;;;;24.70;44.45;97811.53;5055230;28;20200;-77
2023/06/08 10:44:36;;;;;;;4.53;3.92;;;;;;;25.06;44.36;97816.75;5055147;28;20212;-77
2023/06/08 10:47:06;;;;;;;4.45;3.88;;;;;;;25.44;42.50;97812.34;5054085;28;20311;-78
2023/06/08 10:49:34;;;;;;;4.00;3.70;;;;;;;25.29;44.54;97810.09;5054804;28;20205;-78
2023/06/08 10:52:02;;;;;;;4.38;3.92;;;;;;;25.72;45.68;97810.88;5054330;28;20323;-77
2023/06/08 10:54:30;;;;;;;5.07;4.57;;;;;;;25.45;45.03;97811.22;5053911;28;20209;-77
2023/06/08 10:57:00;;;;;;;5.63;4.38;;;;;;;25.25;44.84;97809.09;5054959;28;20225;-77
2023/06/08 10:59:35;;;;;;;4.28;3.85;;;;;;;25.47;44.77;97806.25;5054633;28;20208;-77
2023/06/08 11:02:04;;;;;;;4.55;4.15;;;;;;;25.44;45.08;97805.00;5054194;28;20201;-77
2023/06/08 11:04:31;;;;;;;4.32;3.95;;;;;;;25.59;46.31;97801.78;5054044;28;20213;-77
2023/06/08 11:07:05;;;;;;;4.72;4.32;;;;;;;25.96;43.33;97803.03;5053922;28;20228;-77
2023/06/08 11:09:34;;;;;;;5.15;4.65;;;;;;;26.28;43.08;97799.75;5053832;28;20571;-77
2023/06/08 11:12:01;;;;;;;4.68;4.32;;;;;;;26.04;43.62;97799.47;5054161;28;20228;-77
2023/06/08 11:14:28;;;;;;;4.68;4.28;;;;;;;26.12;43.26;97801.38;5054131;28;20209;-77
2023/06/08 11:16:55;;;;;;;4.70;4.22;;;;;;;26.26;42.90;97805.53;5054394;28;20229;-74
2023/06/08 11:19:23;;;;;;;4.60;4.18;;;;;;;25.54;44.08;97792.97;5054140;28;20213;-74
2023/06/08 11:21:53;;;;;;;5.72;4.20;;;;;;;25.58;43.72;97783.84;5054064;28;20205;-75
2023/06/08 11:24:27;;;;;;;4.45;4.15;;;;;;;25.53;43.82;97788.63;5053469;28;20267;-75
2023/06/08 11:26:59;;;;;;;4.88;4.22;;;;;;;25.64;44.17;97779.81;5053732;28;20229;-75
2023/06/08 11:29:25;;;;;;;4.20;3.85;;;;;;;26.17;42.48;97780.22;5053807;28;20240;-75
2023/06/08 11:31:52;;;;;;;4.50;4.20;;;;;;;26.10;41.44;97773.69;5053745;28;20240;-75
2023/06/08 11:34:18;;;;;;;4.38;3.88;;;;;;;25.99;42.26;97769.69;5053190;28;20687;-75
2023/06/08 11:36:45;;;;;;;4.38;3.97;;;;;;;25.28;41.75;97764.97;5053721;28;20225;-75